Terminal Aerodrome Forecast
Issued by NWS

Current Version | Previous Version | Graphics & Text | Print | Product List | Glossary On
Versions: 1 2 3 4 5 6 7 8 9 10 11 12 13 14 15 16 17 18 19 20 21 22
000
FTUS41 KPBZ 221720
TAFMGW
TAF
KMGW 221720Z 2218/2318 25007KT P6SM BKN040
      TEMPO 2218/2219 5SM -TSRA OVC040CB
     FM230100 24003KT P6SM SCT060
     FM230900 22003KT 3SM BR SCT250
     FM231400 25003KT P6SM SCT035=

USA.gov is the U.S. government's official web portal to all federal, state and local government web resources and services.